Hope, Michigan
Current Conditions -  °F | °C
As of 11:11 PM on Wednesday 22 Oct 2014 (Local Time) from KIKW Reporting Station
Clear Clear  
Wind Chill: 33°   Ceiling: Unl
Heat Index: 33°   Visibility: 7mi
Dew Point: 32°   Wind: 0mph
Humidity: 99%   Direction: NA
Pressure: 30.3"   Gusts: NA
Location:  43.76°N, 84.34°W
Report Text: KIKW 230311Z AUTO 00000KT 7SM CLR 00/00 A3030 RMK AO2 T00030002
Loading
Personal Weather Stations






























Interactive Weather Map
Tropical Storm Tracking
New forecast layout! Learn more

10-Day Weather Forecast

Advertisements
Track Severe Weather on mobile